Time;durP1;ratioP1;P1;durP2;ratioP2;P2;SDS_P1;SDS_P2;PMS_P1;PMS_P2;Temp;Humidity;BMP_temperature;BMP_pressure;BME280_temperature;BME280_humidity;BME280_pressure;Samples;Min_cycle;Max_cycle;Signal;HPM_P1;HPM_P2
2023/04/02 00:02:00;;;;;;;;;;;;;;;;;;5093109;28;19919;-73
2023/04/02 00:05:04;;;;;;;;;;;;;;;;;;5093326;28;19927;-74
2023/04/02 00:08:09;;;;;;;;;;;;;;;;;;5093008;28;19970;-74
2023/04/02 00:11:14;;;;;;;;;;;;;;;;;;5092997;28;19923;-74
2023/04/02 00:14:17;;;;;;;;;;;;;;;;;;5092998;28;20016;-74
2023/04/02 00:17:25;;;;;;;;;;;;;;;;;;5092920;28;20426;-74
2023/04/02 00:20:28;;;;;;;;;;;;;;;;;;5093029;28;20279;-74
2023/04/02 00:23:31;;;;;;;;;;;;;;;;;;5092701;28;20046;-73
2023/04/02 00:26:35;;;;;;;;;;;;;;;;;;5092860;28;19980;-73
2023/04/02 00:29:38;;;;;;;;;;;;;;;;;;5092785;28;20319;-73
2023/04/02 00:32:41;;;;;;;;;;;;;;;;;;5092784;28;20015;-73
2023/04/02 00:35:44;;;;;;;;;;;;;;;;;;5092859;28;19973;-73
2023/04/02 00:38:47;;;;;;;;;;;;;;;;;;5092709;28;19919;-73
2023/04/02 00:42:03;;;;;;;;;;;;;;;;;;5092990;28;19919;-73
2023/04/02 00:45:08;;;;;;;;;;;;;;;;;;5092656;28;19919;-73
2023/04/02 00:48:11;;;;;;;;;;;;;;;;;;5093082;28;19969;-73
2023/04/02 00:51:14;;;;;;;;;;;;;;;;;;5080381;28;19942;-73
2023/04/02 00:54:17;;;;;;;;;;;;;;;;;;5092912;28;19923;-73
2023/04/02 00:57:22;;;;;;;;;;;;;;;;;;5092364;28;19949;-73
2023/04/02 01:00:25;;;;;;;;;;;;;;;;;;5079964;28;19966;-73
2023/04/02 01:03:27;;;;;;;;;;;;;;;;;;5092515;28;19919;-73
2023/04/02 01:06:33;;;;;;;;;;;;;;;;;;5092522;28;19923;-73
2023/04/02 01:09:36;;;;;;;;;;;;;;;;;;5092339;28;19930;-73
2023/04/02 01:12:39;;;;;;;;;;;;;;;;;;5083517;28;19919;-73
2023/04/02 01:15:42;;;;;;;;;;;;;;;;;;5083584;28;19935;-73
2023/04/02 01:18:45;;;;;;;;;;;;;;;;;;5096112;28;19973;-73
2023/04/02 01:21:51;;;;;;;;;;;;;;;;;;5096158;28;20287;-73
2023/04/02 01:24:55;;;;;;;;;;;;;;;;;;5096293;28;19922;-73
2023/04/02 01:27:58;;;;;;;;;;;;;;;;;;5095867;28;20003;-72
2023/04/02 01:31:00;;;;;;;;;;;;;;;;;;5083198;28;19919;-72
2023/04/02 01:34:03;;;;;;;;;;;;;;;;;;5083222;28;20353;-72
2023/04/02 01:37:06;;;;;;;;;;;;;;;;;;5083108;28;20021;-73
2023/04/02 01:40:10;;;;;;;;;;;;;;;;;;5082938;28;20275;-72
2023/04/02 01:43:12;;;;;;;;;;;;;;;;;;5083042;28;19981;-72
2023/04/02 01:46:15;;;;;;;;;;;;;;;;;;5095404;28;19969;-73
2023/04/02 01:49:19;;;;;;;;;;;;;;;;;;5082972;28;20299;-73
2023/04/02 01:52:22;;;;;;;;;;;;;;;;;;5095387;28;19918;-73
2023/04/02 01:55:24;;;;;;;;;;;;;;;;;;5082773;28;19988;-73
2023/04/02 01:58:27;;;;;;;;;;;;;;;;;;5082685;28;20387;-73
2023/04/02 02:01:31;;;;;;;;;;;;;;;;;;5082719;28;19957;-73
2023/04/02 02:04:33;;;;;;;;;;;;;;;;;;5095564;28;20283;-73
2023/04/02 02:07:36;;;;;;;;;;;;;;;;;;5082646;28;20007;-73
2023/04/02 02:10:39;;;;;;;;;;;;;;;;;;5082527;28;19918;-73
2023/04/02 02:13:42;;;;;;;;;;;;;;;;;;5095267;28;20329;-73
2023/04/02 02:16:45;;;;;;;;;;;;;;;;;;5082441;28;19923;-73
2023/04/02 02:19:48;;;;;;;;;;;;;;;;;;5095293;28;20056;-73
2023/04/02 02:22:51;;;;;;;;;;;;;;;;;;5094469;28;19936;-73
2023/04/02 02:25:55;;;;;;;;;;;;;;;;;;5094875;28;19922;-73
2023/04/02 02:28:57;;;;;;;;;;;;;;;;;;5082055;28;19935;-72
2023/04/02 02:32:00;;;;;;;;;;;;;;;;;;5094591;28;19937;-72
2023/04/02 02:35:03;;;;;;;;;;;;;;;;;;5082195;28;19919;-72
2023/04/02 02:38:05;;;;;;;;;;;;;;;;;;5094889;28;19919;-72
2023/04/02 02:41:08;;;;;;;;;;;;;;;;;;5082075;28;20432;-72
2023/04/02 02:44:11;;;;;;;;;;;;;;;;;;5082150;28;19919;-72
2023/04/02 02:47:14;;;;;;;;;;;;;;;;;;5081691;28;20009;-72
2023/04/02 02:50:18;;;;;;;;;;;;;;;;;;5082088;28;20007;-72
2023/04/02 02:53:21;;;;;;;;;;;;;;;;;;5082109;28;20062;-72
2023/04/02 02:56:24;;;;;;;;;;;;;;;;;;5094080;28;20383;-72
2023/04/02 02:59:26;;;;;;;;;;;;;;;;;;5081575;28;19920;-73
2023/04/02 03:02:30;;;;;;;;;;;;;;;;;;5081541;28;19923;-73
2023/04/02 03:05:34;;;;;;;;;;;;;;;;;;5081500;28;21810;-73
2023/04/02 03:08:43;;;;;;;;;;;;;;;;;;5081325;28;19966;-73
2023/04/02 03:11:50;;;;;;;;;;;;;;;;;;5093935;28;20395;-73
2023/04/02 03:14:56;;;;;;;;;;;;;;;;;;5081628;28;19954;-73
2023/04/02 03:17:59;;;;;;;;;;;;;;;;;;5081091;28;19958;-73
2023/04/02 03:21:02;;;;;;;;;;;;;;;;;;5081072;28;19957;-73
2023/04/02 03:24:05;;;;;;;;;;;;;;;;;;5081229;28;19927;-73
2023/04/02 03:27:08;;;;;;;;;;;;;;;;;;5080909;28;19941;-73
2023/04/02 03:30:10;;;;;;;;;;;;;;;;;;5080914;28;19940;-73
2023/04/02 03:33:13;;;;;;;;;;;;;;;;;;5081015;28;19959;-73
2023/04/02 03:36:17;;;;;;;;;;;;;;;;;;5093507;28;20023;-73
2023/04/02 03:39:20;;;;;;;;;;;;;;;;;;5080876;28;19923;-73
2023/04/02 03:42:28;;;;;;;;;;;;;;;;;;5081162;28;19974;-73
2023/04/02 03:45:35;;;;;;;;;;;;;;;;;;5080624;28;19923;-73
2023/04/02 03:48:39;;;;;;;;;;;;;;;;;;5080792;28;19919;-73
2023/04/02 03:51:42;;;;;;;;;;;;;;;;;;5080605;28;20003;-73
2023/04/02 03:54:45;;;;;;;;;;;;;;;;;;5080579;28;19923;-72
2023/04/02 03:57:50;;;;;;;;;;;;;;;;;;5063234;28;19983;-72
2023/04/02 04:00:52;;;;;;;;;;;;;;;;;;5061015;28;19958;-72
2023/04/02 04:03:56;;;;;;;;;;;;;;;;;;5060594;28;19919;-72
2023/04/02 04:06:59;;;;;;;;;;;;;;;;;;5060203;28;20430;-72
2023/04/02 04:10:01;;;;;;;;;;;;;;;;;;5072812;28;19958;-72
2023/04/02 04:13:04;;;;;;;;;;;;;;;;;;5072673;28;19977;-72
2023/04/02 04:16:07;;;;;;;;;;;;;;;;;;5060364;28;19976;-72
2023/04/02 04:19:11;;;;;;;;;;;;;;;;;;5072778;28;20387;-72
2023/04/02 04:22:16;;;;;;;;;;;;;;;;;;5060387;28;20350;-72
2023/04/02 04:25:20;;;;;;;;;;;;;;;;;;5060055;28;19920;-72
2023/04/02 04:28:23;;;;;;;;;;;;;;;;;;5060230;28;19938;-72
2023/04/02 04:35:20;;;;;;;;;;;;;;;;;;5071801;28;20342;-71
2023/04/02 04:38:26;;;;;;;;;;;;;;;;;;5059916;28;19920;-72
2023/04/02 04:41:33;;;;;;;;;;;;;;;;;;5071584;28;19920;-71
2023/04/02 04:44:37;;;;;;;;;;;;;;;;;;5059787;28;19935;-71
2023/04/02 04:47:40;;;;;;;;;;;;;;;;;;5063875;28;20307;-71
2023/04/02 04:50:43;;;;;;;;;;;;;;;;;;5064059;28;19919;-72
2023/04/02 04:53:46;;;;;;;;;;;;;;;;;;5063908;28;19919;-71
2023/04/02 04:56:49;;;;;;;;;;;;;;;;;;5063274;28;19966;-73
2023/04/02 04:59:52;;;;;;;;;;;;;;;;;;5063833;28;19920;-72
2023/04/02 05:02:55;;;;;;;;;;;;;;;;;;5063559;28;20012;-72
2023/04/02 05:05:59;;;;;;;;;;;;;;;;;;5063569;28;20019;-72
2023/04/02 05:09:03;;;;;;;;;;;;;;;;;;5063431;28;19936;-72
2023/04/02 05:12:06;;;;;;;;;;;;;;;;;;5063549;28;19946;-73
2023/04/02 05:15:09;;;;;;;;;;;;;;;;;;5063440;28;20292;-72
2023/04/02 05:18:12;;;;;;;;;;;;;;;;;;5063535;28;19966;-73
2023/04/02 05:21:16;;;;;;;;;;;;;;;;;;5063361;28;19969;-73
2023/04/02 05:24:19;;;;;;;;;;;;;;;;;;5063063;28;19939;-72
2023/04/02 05:27:22;;;;;;;;;;;;;;;;;;5063146;28;19970;-72
2023/04/02 05:30:25;;;;;;;;;;;;;;;;;;5063043;28;20004;-71
2023/04/02 05:33:31;;;;;;;;;;;;;;;;;;5062999;28;20053;-74
2023/04/02 05:36:37;;;;;;;;;;;;;;;;;;5062991;28;19939;-72
2023/04/02 05:39:40;;;;;;;;;;;;;;;;;;5075441;28;19919;-72
2023/04/02 05:42:46;;;;;;;;;;;;;;;;;;5075212;28;19919;-72
2023/04/02 05:45:50;;;;;;;;;;;;;;;;;;5073887;28;19923;-72
2023/04/02 05:48:55;;;;;;;;;;;;;;;;;;5060678;28;19924;-73
2023/04/02 05:51:59;;;;;;;;;;;;;;;;;;5061670;28;20288;-73
2023/04/02 05:55:11;;;;;;;;;;;;;;;;;;5062313;28;19923;-74
2023/04/02 05:58:16;;;;;;;;;;;;;;;;;;5061265;28;20388;-73
2023/04/02 06:01:41;;;;;;;;;;;;;;;;;;5063916;28;20187;-73
2023/04/02 06:04:51;;;;;;;;;;;;;;;;;;5062751;28;19919;-72
2023/04/02 06:08:00;;;;;;;;;;;;;;;;;;5062227;28;20444;-72
2023/04/02 06:11:03;;;;;;;;;;;;;;;;;;5062127;28;20008;-72
2023/04/02 06:14:07;;;;;;;;;;;;;;;;;;5062220;28;19919;-73
2023/04/02 06:17:09;;;;;;;;;;;;;;;;;;5074409;28;19920;-71
2023/04/02 06:20:12;;;;;;;;;;;;;;;;;;5062069;28;19938;-71
2023/04/02 06:23:15;;;;;;;;;;;;;;;;;;5074016;28;19971;-72
2023/04/02 06:26:19;;;;;;;;;;;;;;;;;;5062038;28;19997;-73
2023/04/02 06:29:22;;;;;;;;;;;;;;;;;;5073606;28;19931;-73
2023/04/02 06:32:31;;;;;;;;;;;;;;;;;;5075039;28;19965;-73
2023/04/02 06:35:34;;;;;;;;;;;;;;;;;;5061922;28;20133;-72
2023/04/02 06:38:39;;;;;;;;;;;;;;;;;;5062019;28;19935;-72
2023/04/02 06:41:47;;;;;;;;;;;;;;;;;;5062321;28;20283;-72
2023/04/02 06:45:10;;;;;;;;;;;;;;;;;;5062332;28;19919;-71
2023/04/02 06:48:25;;;;;;;;;;;;;;;;;;5073686;28;19922;-71
2023/04/02 06:51:32;;;;;;;;;;;;;;;;;;5051896;28;20398;-71
2023/04/02 06:54:35;;;;;;;;;;;;;;;;;;5061407;28;20018;-70
2023/04/02 06:57:45;;;;;;;;;;;;;;;;;;5061563;28;20023;-68
2023/04/02 07:00:54;;;;;;;;;;;;;;;;;;5074165;28;19924;-69
2023/04/02 07:04:09;;;;;;;;;;;;;;;;;;5061376;28;19920;-69
2023/04/02 07:07:16;;;;;;;;;;;;;;;;;;5061045;28;19947;-69
2023/04/02 07:10:21;;;;;;;;;;;;;;;;;;5061610;28;20419;-68
2023/04/02 07:13:27;;;;;;;;;;;;;;;;;;5061693;28;19919;-69
2023/04/02 07:16:30;;;;;;;;;;;;;;;;;;5061110;28;19919;-68
2023/04/02 07:19:40;;;;;;;;;;;;;;;;;;5061290;28;19919;-72
2023/04/02 07:22:44;;;;;;;;;;;;;;;;;;5061037;28;19965;-69
2023/04/02 07:25:47;;;;;;;;;;;;;;;;;;5073559;28;19982;-71
2023/04/02 07:28:50;;;;;;;;;;;;;;;;;;5073380;28;19932;-71
2023/04/02 07:31:54;;;;;;;;;;;;;;;;;;5073702;28;19943;-71
2023/04/02 07:34:57;;;;;;;;;;;;;;;;;;5073373;28;20010;-72
2023/04/02 07:38:00;;;;;;;;;;;;;;;;;;5071694;28;20312;-73
2023/04/02 07:41:03;;;;;;;;;;;;;;;;;;5072299;28;20344;-71
2023/04/02 07:44:06;;;;;;;;;;;;;;;;;;5072986;28;19978;-71
2023/04/02 07:47:12;;;;;;;;;;;;;;;;;;5072937;28;20002;-71
2023/04/02 07:50:15;;;;;;;;;;;;;;;;;;5072139;28;19959;-71
2023/04/02 07:53:23;;;;;;;;;;;;;;;;;;5072455;28;19919;-71
2023/04/02 07:56:27;;;;;;;;;;;;;;;;;;5072809;28;19943;-72
2023/04/02 07:59:31;;;;;;;;;;;;;;;;;;5072767;28;19920;-71
2023/04/02 08:02:34;;;;;;;;;;;;;;;;;;5072702;28;19919;-71
2023/04/02 08:05:38;;;;;;;;;;;;;;;;;;5072840;28;19939;-71
2023/04/02 08:08:42;;;;;;;;;;;;;;;;;;5072505;28;19920;-70
2023/04/02 08:11:51;;;;;;;;;;;;;;;;;;5072822;28;19935;-71
2023/04/02 08:14:54;;;;;;;;;;;;;;;;;;5072554;28;19919;-70
2023/04/02 08:17:58;;;;;;;;;;;;;;;;;;5059968;28;20383;-70
2023/04/02 08:21:03;;;;;;;;;;;;;;;;;;5071913;28;19959;-70
2023/04/02 08:24:06;;;;;;;;;;;;;;;;;;5072282;28;19919;-70
2023/04/02 08:27:10;;;;;;;;;;;;;;;;;;5072254;28;19958;-71
2023/04/02 08:30:16;;;;;;;;;;;;;;;;;;5072766;28;20438;-71
2023/04/02 08:33:22;;;;;;;;;;;;;;;;;;5072666;28;19923;-71
2023/04/02 08:36:52;;;;;;;;;;;;;;;;;;5072825;28;19948;-72
2023/04/02 08:39:57;;;;;;;;;;;;;;;;;;5070961;28;20414;-74
2023/04/02 08:43:04;;;;;;;;;;;;;;;;;;5072227;28;19920;-73
2023/04/02 08:46:12;;;;;;;;;;;;;;;;;;5072476;28;19939;-71
2023/04/02 08:49:16;;;;;;;;;;;;;;;;;;5072743;28;19970;-71
2023/04/02 08:52:26;;;;;;;;;;;;;;;;;;5081853;28;19919;-71
2023/04/02 08:55:31;;;;;;;;;;;;;;;;;;5058336;28;19919;-72
2023/04/02 08:58:44;;;;;;;;;;;;;;;;;;5051887;28;20009;-71
2023/04/02 09:01:47;;;;;;;;;;;;;;;;;;5046847;28;19939;-71
2023/04/02 09:04:54;;;;;;;;;;;;;;;;;;5062386;28;19920;-71
2023/04/02 09:07:56;;;;;;;;;;;;;;;;;;5051402;28;19928;-71
2023/04/02 09:10:59;;;;;;;;;;;;;;;;;;5051699;28;19924;-71
2023/04/02 09:14:03;;;;;;;;;;;;;;;;;;5051426;28;19963;-71
2023/04/02 09:17:07;;;;;;;;;;;;;;;;;;5051450;28;19920;-71
2023/04/02 09:20:10;;;;;;;;;;;;;;;;;;5052313;28;19923;-72
2023/04/02 09:23:13;;;;;;;;;;;;;;;;;;5052121;28;19967;-74
2023/04/02 09:26:16;;;;;;;;;;;;;;;;;;5052095;28;19924;-73
2023/04/02 09:29:18;;;;;;;;;;;;;;;;;;5051934;28;20387;-72
2023/04/02 09:32:21;;;;;;;;;;;;;;;;;;5052451;28;19970;-72
2023/04/02 09:35:24;;;;;;;;;;;;;;;;;;5055477;28;19920;-72
2023/04/02 09:38:31;;;;;;;;;;;;;;;;;;5055558;28;20030;-72
2023/04/02 09:41:34;;;;;;;;;;;;;;;;;;5054444;28;19966;-71
2023/04/02 09:44:37;;;;;;;;;;;;;;;;;;5055564;28;19936;-71
2023/04/02 09:47:40;;;;;;;;;;;;;;;;;;5055092;28;20412;-71
2023/04/02 09:50:42;;;;;;;;;;;;;;;;;;5055402;28;19920;-72
2023/04/02 09:53:46;;;;;;;;;;;;;;;;;;5054780;28;19963;-71
2023/04/02 09:56:49;;;;;;;;;;;;;;;;;;5063406;28;19928;-71
2023/04/02 09:59:52;;;;;;;;;;;;;;;;;;5074557;28;19923;-72
2023/04/02 10:02:55;;;;;;;;;;;;;;;;;;5071337;28;19990;-72
2023/04/02 10:05:58;;;;;;;;;;;;;;;;;;5074854;28;19923;-73
2023/04/02 10:09:00;;;;;;;;;;;;;;;;;;5074986;28;19958;-73
2023/04/02 10:12:04;;;;;;;;;;;;;;;;;;5075132;28;19966;-72
2023/04/02 10:15:07;;;;;;;;;;;;;;;;;;5074880;28;20292;-68
2023/04/02 10:18:11;;;;;;;;;;;;;;;;;;5073735;28;20065;-72
2023/04/02 10:21:15;;;;;;;;;;;;;;;;;;5074851;28;20008;-71
2023/04/02 10:24:18;;;;;;;;;;;;;;;;;;5074470;28;20001;-71
2023/04/02 10:27:24;;;;;;;;;;;;;;;;;;5074636;28;19969;-71
2023/04/02 10:30:27;;;;;;;;;;;;;;;;;;5074434;28;19919;-72
2023/04/02 10:33:31;;;;;;;;;;;;;;;;;;5074403;28;19919;-71
2023/04/02 10:36:34;;;;;;;;;;;;;;;;;;5074231;28;20027;-71
2023/04/02 10:39:37;;;;;;;;;;;;;;;;;;5074082;28;19969;-70
2023/04/02 10:42:41;;;;;;;;;;;;;;;;;;5074106;28;19919;-71
2023/04/02 10:45:43;;;;;;;;;;;;;;;;;;5074033;28;20368;-71
2023/04/02 10:48:47;;;;;;;;;;;;;;;;;;5074082;28;19919;-71
2023/04/02 10:51:50;;;;;;;;;;;;;;;;;;5074264;28;19919;-71
2023/04/02 10:54:54;;;;;;;;;;;;;;;;;;5084873;28;19973;-71
2023/04/02 10:57:57;;;;;;;;;;;;;;;;;;5073751;28;19966;-70
2023/04/02 11:01:00;;;;;;;;;;;;;;;;;;5072036;28;19935;-70
2023/04/02 11:04:04;;;;;;;;;;;;;;;;;;5057431;28;19920;-71
2023/04/02 11:07:08;;;;;;;;;;;;;;;;;;5071587;28;20395;-70
2023/04/02 11:10:11;;;;;;;;;;;;;;;;;;5072542;28;20038;-70
2023/04/02 11:13:15;;;;;;;;;;;;;;;;;;5072776;28;19969;-70
2023/04/02 11:16:20;;;;;;;;;;;;;;;;;;5067105;28;19967;-70
2023/04/02 11:19:25;;;;;;;;;;;;;;;;;;5051142;28;20221;-70
2023/04/02 11:22:29;;;;;;;;;;;;;;;;;;5070222;28;19920;-71
2023/04/02 11:25:33;;;;;;;;;;;;;;;;;;5062584;28;19970;-71
2023/04/02 11:28:35;;;;;;;;;;;;;;;;;;5066965;28;19924;-70
2023/04/02 11:31:39;;;;;;;;;;;;;;;;;;5069409;28;19967;-71
2023/04/02 11:34:47;;;;;;;;;;;;;;;;;;5046939;28;19920;-70
2023/04/02 11:37:51;;;;;;;;;;;;;;;;;;5047999;28;19919;-71
2023/04/02 11:40:54;;;;;;;;;;;;;;;;;;5053175;28;20257;-71
2023/04/02 11:43:57;;;;;;;;;;;;;;;;;;5053079;28;19939;-70
2023/04/02 11:47:00;;;;;;;;;;;;;;;;;;5053089;28;20289;-70
2023/04/02 11:50:04;;;;;;;;;;;;;;;;;;5052934;28;19920;-71
2023/04/02 11:53:07;;;;;;;;;;;;;;;;;;5053162;28;19919;-71
2023/04/02 11:56:10;;;;;;;;;;;;;;;;;;5052212;28;20333;-71
2023/04/02 11:59:13;;;;;;;;;;;;;;;;;;5063567;28;20395;-71
2023/04/02 12:02:17;;;;;;;;;;;;;;;;;;5052949;28;19939;-72
2023/04/02 12:05:19;;;;;;;;;;;;;;;;;;5063875;28;19945;-71
2023/04/02 12:08:22;;;;;;;;;;;;;;;;;;5052683;28;19924;-71
2023/04/02 12:11:27;;;;;;;;;;;;;;;;;;5051463;28;19974;-71
2023/04/02 12:14:30;;;;;;;;;;;;;;;;;;5039706;28;20392;-71
2023/04/02 12:17:35;;;;;;;;;;;;;;;;;;5040045;28;19923;-71
2023/04/02 12:20:38;;;;;;;;;;;;;;;;;;5052473;28;19919;-71
2023/04/02 12:23:41;;;;;;;;;;;;;;;;;;5052317;28;20277;-71
2023/04/02 12:26:46;;;;;;;;;;;;;;;;;;5052289;28;19940;-70
2023/04/02 12:29:51;;;;;;;;;;;;;;;;;;5039963;28;19919;-71
2023/04/02 12:32:55;;;;;;;;;;;;;;;;;;5063061;28;19919;-71
2023/04/02 12:35:58;;;;;;;;;;;;;;;;;;5048918;28;19919;-71
2023/04/02 12:39:01;;;;;;;;;;;;;;;;;;5052124;28;20396;-70
2023/04/02 12:42:04;;;;;;;;;;;;;;;;;;5052268;28;20414;-71
2023/04/02 12:49:03;;;;;;;;;;;;;;;;;;5049301;28;19971;-71
2023/04/02 12:52:05;;;;;;;;;;;;;;;;;;5065269;28;20553;-72
2023/04/02 12:55:15;;;;;;;;;;;;;;;;;;5074038;28;19943;-71
2023/04/02 12:58:19;;;;;;;;;;;;;;;;;;5071991;28;20486;-71
2023/04/02 13:01:27;;;;;;;;;;;;;;;;;;5058008;28;19957;-71
2023/04/02 13:04:30;;;;;;;;;;;;;;;;;;5051931;28;19959;-71
2023/04/02 13:07:33;;;;;;;;;;;;;;;;;;5054356;28;19927;-71
2023/04/02 13:10:35;;;;;;;;;;;;;;;;;;5055693;28;19920;-71
2023/04/02 13:13:38;;;;;;;;;;;;;;;;;;5055807;28;19966;-71
2023/04/02 13:16:41;;;;;;;;;;;;;;;;;;5055480;28;19966;-71
2023/04/02 13:19:44;;;;;;;;;;;;;;;;;;5055721;28;19935;-71
2023/04/02 13:22:47;;;;;;;;;;;;;;;;;;5055509;28;19920;-71
2023/04/02 13:25:50;;;;;;;;;;;;;;;;;;5055479;28;19971;-71
2023/04/02 13:28:52;;;;;;;;;;;;;;;;;;5055423;28;20376;-71
2023/04/02 13:31:56;;;;;;;;;;;;;;;;;;5065963;28;19990;-72
2023/04/02 13:35:04;;;;;;;;;;;;;;;;;;5055106;28;19920;-71
2023/04/02 13:38:09;;;;;;;;;;;;;;;;;;5055449;28;19967;-70
2023/04/02 13:41:12;;;;;;;;;;;;;;;;;;5074974;28;19958;-71
2023/04/02 13:44:15;;;;;;;;;;;;;;;;;;5075110;28;19923;-71
2023/04/02 13:47:19;;;;;;;;;;;;;;;;;;5062731;28;19923;-71
2023/04/02 13:50:21;;;;;;;;;;;;;;;;;;5075130;28;19970;-71
2023/04/02 13:53:27;;;;;;;;;;;;;;;;;;5074303;28;19919;-73
2023/04/02 13:56:31;;;;;;;;;;;;;;;;;;5074888;28;19938;-74
2023/04/02 13:59:34;;;;;;;;;;;;;;;;;;5075053;28;19969;-72
2023/04/02 14:02:42;;;;;;;;;;;;;;;;;;5076704;28;20335;-74
2023/04/02 14:05:46;;;;;;;;;;;;;;;;;;5074374;28;19923;-72
2023/04/02 14:08:48;;;;;;;;;;;;;;;;;;5074718;28;19966;-72
2023/04/02 14:11:51;;;;;;;;;;;;;;;;;;5074825;28;20375;-72
2023/04/02 14:14:55;;;;;;;;;;;;;;;;;;5074780;28;20383;-71
2023/04/02 14:17:58;;;;;;;;;;;;;;;;;;5073740;28;20300;-72
2023/04/02 14:21:01;;;;;;;;;;;;;;;;;;5074772;28;19919;-71
2023/04/02 14:24:04;;;;;;;;;;;;;;;;;;5074303;28;20288;-72
2023/04/02 14:27:07;;;;;;;;;;;;;;;;;;5074201;28;19943;-73
2023/04/02 14:30:10;;;;;;;;;;;;;;;;;;5074487;28;19939;-71
2023/04/02 14:33:13;;;;;;;;;;;;;;;;;;5062101;28;20387;-73
2023/04/02 14:36:15;;;;;;;;;;;;;;;;;;5074184;28;19920;-72
2023/04/02 14:39:19;;;;;;;;;;;;;;;;;;5074441;28;19923;-73
2023/04/02 14:42:22;;;;;;;;;;;;;;;;;;5072650;28;19919;-73
2023/04/02 14:45:25;;;;;;;;;;;;;;;;;;5074435;28;19919;-72
2023/04/02 14:48:28;;;;;;;;;;;;;;;;;;5073914;28;19962;-72
2023/04/02 14:55:49;;;;;;;;;;;;;;;;;;5072341;28;19918;-74
2023/04/02 14:58:52;;;;;;;;;;;;;;;;;;5073834;28;19928;-73
2023/04/02 15:01:56;;;;;;;;;;;;;;;;;;5073854;28;19919;-74
2023/04/02 15:04:59;;;;;;;;;;;;;;;;;;5073648;28;19918;-73
2023/04/02 15:08:03;;;;;;;;;;;;;;;;;;5073078;28;19923;-73
2023/04/02 15:11:06;;;;;;;;;;;;;;;;;;5073542;28;19920;-71
2023/04/02 15:14:11;;;;;;;;;;;;;;;;;;5073007;28;20394;-72
2023/04/02 15:17:14;;;;;;;;;;;;;;;;;;5072716;28;20049;-71
2023/04/02 15:20:17;;;;;;;;;;;;;;;;;;5073342;28;19957;-71
2023/04/02 15:23:20;;;;;;;;;;;;;;;;;;5072518;28;20387;-72
2023/04/02 15:26:23;;;;;;;;;;;;;;;;;;5082884;28;20374;-71
2023/04/02 15:29:26;;;;;;;;;;;;;;;;;;5073104;28;20007;-71
2023/04/02 15:32:29;;;;;;;;;;;;;;;;;;5073163;28;20015;-72
2023/04/02 15:35:33;;;;;;;;;;;;;;;;;;5073429;28;20288;-71
2023/04/02 15:38:36;;;;;;;;;;;;;;;;;;5072919;28;19957;-72
2023/04/02 15:41:39;;;;;;;;;;;;;;;;;;5083893;28;19958;-71
2023/04/02 15:44:43;;;;;;;;;;;;;;;;;;5073012;28;19966;-72
2023/04/02 15:47:46;;;;;;;;;;;;;;;;;;5072960;28;19923;-71
2023/04/02 15:50:49;;;;;;;;;;;;;;;;;;5060323;28;19920;-71
2023/04/02 15:53:54;;;;;;;;;;;;;;;;;;5072819;28;20287;-73
2023/04/02 15:57:03;;;;;;;;;;;;;;;;;;5072716;28;20391;-73
2023/04/02 16:00:06;;;;;;;;;;;;;;;;;;5072728;28;19927;-72
2023/04/02 16:03:19;;;;;;;;;;;;;;;;;;5072699;28;20422;-72
2023/04/02 16:06:24;;;;;;;;;;;;;;;;;;5072817;28;20073;-75
2023/04/02 16:09:29;;;;;;;;;;;;;;;;;;5075036;28;20333;-73
2023/04/02 16:12:32;;;;;;;;;;;;;;;;;;5073499;28;19966;-73
2023/04/02 16:15:35;;;;;;;;;;;;;;;;;;5072695;28;19923;-74
2023/04/02 16:18:38;;;;;;;;;;;;;;;;;;5072508;28;20382;-74
2023/04/02 16:21:41;;;;;;;;;;;;;;;;;;5071454;28;19938;-73
2023/04/02 16:24:44;;;;;;;;;;;;;;;;;;5072665;28;19995;-73
2023/04/02 16:27:48;;;;;;;;;;;;;;;;;;5067765;28;20295;-74
2023/04/02 16:30:51;;;;;;;;;;;;;;;;;;5083223;28;20017;-73
2023/04/02 16:34:01;;;;;;;;;;;;;;;;;;5072223;28;20285;-73
2023/04/02 16:37:04;;;;;;;;;;;;;;;;;;5059986;28;19966;-75
2023/04/02 16:40:08;;;;;;;;;;;;;;;;;;5072383;28;19920;-74
2023/04/02 16:43:11;;;;;;;;;;;;;;;;;;5076355;28;19919;-74
2023/04/02 16:46:14;;;;;;;;;;;;;;;;;;5076345;28;19923;-73
2023/04/02 16:49:17;;;;;;;;;;;;;;;;;;5076849;28;19920;-74
2023/04/02 16:52:21;;;;;;;;;;;;;;;;;;5076662;28;19920;-74
2023/04/02 16:55:24;;;;;;;;;;;;;;;;;;5076963;28;20407;-76
2023/04/02 16:58:27;;;;;;;;;;;;;;;;;;5086830;28;20471;-74
2023/04/02 17:01:31;;;;;;;;;;;;;;;;;;5076325;28;20390;-76
2023/04/02 17:04:44;;;;;;;;;;;;;;;;;;5063759;28;20386;-73
2023/04/02 17:07:48;;;;;;;;;;;;;;;;;;5063410;28;20011;-73
2023/04/02 17:10:51;;;;;;;;;;;;;;;;;;5071429;28;20006;-75
2023/04/02 17:13:53;;;;;;;;;;;;;;;;;;5075781;28;19981;-74
2023/04/02 17:16:57;;;;;;;;;;;;;;;;;;5075716;28;19919;-73
2023/04/02 17:20:00;;;;;;;;;;;;;;;;;;5075739;28;19920;-74
2023/04/02 17:23:06;;;;;;;;;;;;;;;;;;5075494;28;19935;-73
2023/04/02 17:26:09;;;;;;;;;;;;;;;;;;5075756;28;19919;-73
2023/04/02 17:29:13;;;;;;;;;;;;;;;;;;5076203;28;19966;-73
2023/04/02 17:32:16;;;;;;;;;;;;;;;;;;5075844;28;19970;-74
2023/04/02 17:35:19;;;;;;;;;;;;;;;;;;5075522;28;20296;-74
2023/04/02 17:38:22;;;;;;;;;;;;;;;;;;5075407;28;19919;-75
2023/04/02 17:41:26;;;;;;;;;;;;;;;;;;5075621;28;19920;-74
2023/04/02 17:44:29;;;;;;;;;;;;;;;;;;5075329;28;19993;-75
2023/04/02 17:47:32;;;;;;;;;;;;;;;;;;5074962;28;20019;-77
2023/04/02 17:50:35;;;;;;;;;;;;;;;;;;5074780;28;19935;-75
2023/04/02 17:53:38;;;;;;;;;;;;;;;;;;5073242;28;19919;-74
2023/04/02 17:56:42;;;;;;;;;;;;;;;;;;5074968;28;20009;-74
2023/04/02 17:59:47;;;;;;;;;;;;;;;;;;5062989;28;19920;-75
2023/04/02 18:02:50;;;;;;;;;;;;;;;;;;5074571;28;20015;-75
2023/04/02 18:05:53;;;;;;;;;;;;;;;;;;5073089;28;20376;-75
2023/04/02 18:08:57;;;;;;;;;;;;;;;;;;5071608;28;20359;-75
2023/04/02 18:11:59;;;;;;;;;;;;;;;;;;5062249;28;19919;-75
2023/04/02 18:15:07;;;;;;;;;;;;;;;;;;5074804;28;19966;-75
2023/04/02 18:18:10;;;;;;;;;;;;;;;;;;5074792;28;19927;-75
2023/04/02 18:21:16;;;;;;;;;;;;;;;;;;5075088;28;20296;-74
2023/04/02 18:24:20;;;;;;;;;;;;;;;;;;5062177;28;19924;-75
2023/04/02 18:27:23;;;;;;;;;;;;;;;;;;5074498;28;19924;-75
2023/04/02 18:30:27;;;;;;;;;;;;;;;;;;5074631;28;20002;-75
2023/04/02 18:33:30;;;;;;;;;;;;;;;;;;5074869;28;19920;-74
2023/04/02 18:36:34;;;;;;;;;;;;;;;;;;5074594;28;19935;-75
2023/04/02 18:39:38;;;;;;;;;;;;;;;;;;5074391;28;20244;-75
2023/04/02 18:42:41;;;;;;;;;;;;;;;;;;5061745;28;20379;-74
2023/04/02 18:45:45;;;;;;;;;;;;;;;;;;5073732;28;20007;-74
2023/04/02 18:48:50;;;;;;;;;;;;;;;;;;5071076;28;19923;-76
2023/04/02 18:51:54;;;;;;;;;;;;;;;;;;5072393;28;20358;-76
2023/04/02 18:54:57;;;;;;;;;;;;;;;;;;5064664;28;19935;-76
2023/04/02 18:58:00;;;;;;;;;;;;;;;;;;5053659;28;19927;-74
2023/04/02 19:01:05;;;;;;;;;;;;;;;;;;5078706;28;19971;-75
2023/04/02 19:04:09;;;;;;;;;;;;;;;;;;5070369;28;20241;-76
2023/04/02 19:07:12;;;;;;;;;;;;;;;;;;5071763;28;19974;-76
2023/04/02 19:10:16;;;;;;;;;;;;;;;;;;5072297;28;20015;-75
2023/04/02 19:13:24;;;;;;;;;;;;;;;;;;5073410;28;19950;-75
2023/04/02 19:16:27;;;;;;;;;;;;;;;;;;5073519;28;19971;-76
2023/04/02 19:19:31;;;;;;;;;;;;;;;;;;5073317;28;19918;-77
2023/04/02 19:22:34;;;;;;;;;;;;;;;;;;5073260;28;20444;-79
2023/04/02 19:25:37;;;;;;;;;;;;;;;;;;5073178;28;19919;-78
2023/04/02 19:28:40;;;;;;;;;;;;;;;;;;5073267;28;19922;-75
2023/04/02 19:31:43;;;;;;;;;;;;;;;;;;5073213;28;20351;-75
2023/04/02 19:34:46;;;;;;;;;;;;;;;;;;5073075;28;20296;-78
2023/04/02 19:37:49;;;;;;;;;;;;;;;;;;5073028;28;19919;-76
2023/04/02 19:40:52;;;;;;;;;;;;;;;;;;5073032;28;20391;-76
2023/04/02 19:43:56;;;;;;;;;;;;;;;;;;5072607;28;20146;-77
2023/04/02 19:46:59;;;;;;;;;;;;;;;;;;5071953;28;19923;-75
2023/04/02 19:50:03;;;;;;;;;;;;;;;;;;5073468;28;20315;-77
2023/04/02 19:53:07;;;;;;;;;;;;;;;;;;5073230;28;19974;-77
2023/04/02 19:56:10;;;;;;;;;;;;;;;;;;5058831;28;19920;-76
2023/04/02 19:59:15;;;;;;;;;;;;;;;;;;5071576;28;19943;-76
2023/04/02 20:02:19;;;;;;;;;;;;;;;;;;5072547;28;19939;-75
2023/04/02 20:05:22;;;;;;;;;;;;;;;;;;5072286;28;19966;-75
2023/04/02 20:08:25;;;;;;;;;;;;;;;;;;5072617;28;19927;-75
2023/04/02 20:11:28;;;;;;;;;;;;;;;;;;5071691;28;19920;-76
2023/04/02 20:14:32;;;;;;;;;;;;;;;;;;5071602;28;19951;-77
2023/04/02 20:17:36;;;;;;;;;;;;;;;;;;5066485;28;19923;-75
2023/04/02 20:20:39;;;;;;;;;;;;;;;;;;5073704;28;19987;-76
2023/04/02 20:23:42;;;;;;;;;;;;;;;;;;5072016;28;19966;-76
2023/04/02 20:26:45;;;;;;;;;;;;;;;;;;5077795;28;20074;-74
2023/04/02 20:29:59;;;;;;;;;;;;;;;;;;5078867;28;19927;-77
2023/04/02 20:33:03;;;;;;;;;;;;;;;;;;5074812;28;20391;-76
2023/04/02 20:36:06;;;;;;;;;;;;;;;;;;5071774;28;20021;-75
2023/04/02 20:39:10;;;;;;;;;;;;;;;;;;5071008;28;19959;-74
2023/04/02 20:42:19;;;;;;;;;;;;;;;;;;5070032;28;19969;-73
2023/04/02 20:45:23;;;;;;;;;;;;;;;;;;5065923;28;19923;-75
2023/04/02 20:48:26;;;;;;;;;;;;;;;;;;5068752;28;19924;-74
2023/04/02 20:51:29;;;;;;;;;;;;;;;;;;5070964;28;19920;-73
2023/04/02 20:54:32;;;;;;;;;;;;;;;;;;5070809;28;20007;-74
2023/04/02 20:57:35;;;;;;;;;;;;;;;;;;5069178;28;19935;-74
2023/04/02 21:00:38;;;;;;;;;;;;;;;;;;5073457;28;20025;-74
2023/04/02 21:03:40;;;;;;;;;;;;;;;;;;5070796;28;19919;-74
2023/04/02 21:06:43;;;;;;;;;;;;;;;;;;5070315;28;20288;-75
2023/04/02 21:09:46;;;;;;;;;;;;;;;;;;5071966;28;19919;-73